Time;durP1;ratioP1;P1;durP2;ratioP2;P2;SDS_P1;SDS_P2;PMS_P1;PMS_P2;Temp;Humidity;BMP_temperature;BMP_pressure;BME280_temperature;BME280_humidity;BME280_pressure;Samples;Min_cycle;Max_cycle;Signal;HPM_P1;HPM_P2
2021/03/12 00:00:42;;;;;;;14.23;4.78;;;20.50;69.10;;;;;;5114434;27;20039;-73
2021/03/12 00:03:17;;;;;;;10.30;4.00;;;20.50;69.10;;;;;;5076969;28;20074;-73
2021/03/12 00:06:23;;;;;;;10.75;4.43;;;20.50;69.00;;;;;;5075639;28;20013;-73
2021/03/12 00:08:50;;;;;;;10.73;4.30;;;20.40;68.70;;;;;;5076204;28;20021;-73
2021/03/12 00:11:17;;;;;;;13.45;4.20;;;20.40;68.00;;;;;;5078567;28;20032;-72
2021/03/12 00:14:23;;;;;;;16.02;4.68;;;20.30;67.90;;;;;;5075115;28;20020;-73
2021/03/12 00:17:29;;;;;;;11.73;3.42;;;20.40;67.60;;;;;;5077130;28;20008;-72
2021/03/12 00:20:35;;;;;;;15.73;3.30;;;20.30;67.00;;;;;;5079926;28;20545;-72
2021/03/12 00:23:41;;;;;;;8.10;2.70;;;20.30;66.70;;;;;;5077935;28;20107;-72
2021/03/12 00:26:47;;;;;;;10.88;2.92;;;20.40;66.30;;;;;;5073898;28;20099;-71
2021/03/12 00:29:54;;;;;;;6.95;2.83;;;20.40;66.00;;;;;;5074460;28;20024;-72
2021/03/12 00:33:00;;;;;;;8.38;4.47;;;20.30;65.80;;;;;;5078502;28;20043;-72
2021/03/12 00:36:06;;;;;;;8.30;3.08;;;20.30;66.10;;;;;;5076814;28;20115;-71
2021/03/12 00:38:32;;;;;;;8.38;3.45;;;20.30;66.70;;;;;;5071952;28;20059;-72
2021/03/12 00:41:04;;;;;;;9.35;3.65;;;20.30;66.80;;;;;;5074770;28;20613;-72
2021/03/12 00:44:10;;;;;;;12.02;4.82;;;20.30;67.10;;;;;;5073670;28;20681;-72
2021/03/12 00:47:16;;;;;;;12.68;4.20;;;20.30;67.30;;;;;;5077891;28;20017;-73
2021/03/12 00:50:22;;;;;;;11.05;4.22;;;20.20;67.80;;;;;;5075683;28;20074;-72
2021/03/12 00:53:28;;;;;;;8.00;4.25;;;20.20;68.30;;;;;;5076886;28;20436;-72
2021/03/12 00:56:34;;;;;;;13.02;4.47;;;20.20;68.90;;;;;;5075398;28;20017;-72
2021/03/12 00:59:40;;;;;;;12.68;4.65;;;20.20;69.10;;;;;;5073055;28;20028;-72
2021/03/12 01:02:46;;;;;;;9.73;4.03;;;20.10;69.60;;;;;;5076625;28;20051;-72
2021/03/12 01:05:52;;;;;;;7.07;4.13;;;20.10;70.10;;;;;;5077099;28;20024;-72
2021/03/12 01:08:19;;;;;;;12.18;4.28;;;20.10;70.20;;;;;;5075794;28;20051;-72
2021/03/12 01:10:45;;;;;;;6.90;3.70;;;20.10;70.50;;;;;;5072254;28;20487;-72
2021/03/12 01:13:51;;;;;;;6.75;4.25;;;20.10;70.50;;;;;;5073597;28;20103;-72
2021/03/12 01:16:58;;;;;;;10.98;3.63;;;20.10;70.90;;;;;;5080568;28;20024;-72
2021/03/12 01:20:04;;;;;;;9.65;3.25;;;20.10;71.00;;;;;;5075282;28;20039;-72
2021/03/12 01:22:38;;;;;;;10.75;3.95;;;20.10;71.40;;;;;;5070868;28;20077;-72
2021/03/12 01:25:44;;;;;;;6.90;3.30;;;20.10;71.60;;;;;;5073661;28;20032;-73
2021/03/12 01:28:11;;;;;;;6.70;3.47;;;20.10;71.80;;;;;;5075684;28;20050;-73
2021/03/12 01:31:17;;;;;;;7.63;3.25;;;20.10;71.40;;;;;;5077478;28;20020;-73
2021/03/12 01:34:23;;;;;;;8.73;3.65;;;20.10;71.20;;;;;;5075242;28;20024;-73
2021/03/12 01:37:29;;;;;;;12.88;2.75;;;20.10;70.90;;;;;;5077072;28;20017;-73
2021/03/12 01:40:35;;;;;;;7.30;2.00;;;20.10;70.90;;;;;;5086166;28;20017;-74
2021/03/12 01:43:03;;;;;;;6.97;2.47;;;20.10;70.50;;;;;;5080829;28;20044;-73
2021/03/12 01:45:39;;;;;;;4.05;2.00;;;20.10;70.20;;;;;;5081890;28;20020;-73
2021/03/12 01:48:11;;;;;;;5.85;2.10;;;20.10;70.40;;;;;;5081556;28;20016;-72
2021/03/12 01:51:17;;;;;;;12.93;3.38;;;20.10;70.10;;;;;;5080643;28;20063;-74
2021/03/12 01:54:23;;;;;;;7.25;2.35;;;20.10;70.30;;;;;;5083938;28;20103;-74
2021/03/12 01:56:50;;;;;;;5.32;2.20;;;20.10;70.40;;;;;;5078349;28;20020;-74
2021/03/12 01:59:56;;;;;;;7.65;2.03;;;20.10;70.30;;;;;;5083068;28;20036;-73
2021/03/12 02:03:02;;;;;;;6.25;1.98;;;20.00;69.80;;;;;;5082354;28;20020;-73
2021/03/12 02:05:28;;;;;;;5.28;1.70;;;20.00;69.60;;;;;;5084932;28;20017;-72
2021/03/12 02:08:35;;;;;;;4.40;1.80;;;20.00;68.80;;;;;;5082237;28;20029;-72
2021/03/12 02:11:41;;;;;;;5.30;1.50;;;20.00;68.40;;;;;;5083270;28;20453;-72
2021/03/12 02:14:47;;;;;;;7.03;1.70;;;20.00;67.90;;;;;;5082855;28;20035;-72
2021/03/12 02:17:51;;;;;;;2.15;0.90;;;20.00;65.90;;;;;;5082135;28;20086;-71
2021/03/12 02:20:36;;;;;;;4.22;1.35;;;19.90;64.70;;;;;;5079310;28;20774;-71
2021/03/12 02:23:31;;;;;;;5.15;1.58;;;19.90;64.50;;;;;;5083216;28;20050;-71
2021/03/12 02:26:23;;;;;;;9.13;1.50;;;20.00;64.80;;;;;;5081608;28;20050;-71
2021/03/12 02:29:29;;;;;;;3.45;1.33;;;19.90;65.40;;;;;;5082814;28;20085;-71
2021/03/12 02:32:13;;;;;;;9.40;2.05;;;19.90;65.60;;;;;;5081970;28;20024;-72
2021/03/12 02:35:21;;;;;;;3.92;1.15;;;19.90;65.80;;;;;;5083351;28;20028;-71
2021/03/12 02:37:52;;;;;;;5.63;1.58;;;19.80;66.30;;;;;;5080933;28;20036;-72
2021/03/12 02:40:20;;;;;;;4.40;1.35;;;19.80;66.50;;;;;;5078608;28;20024;-71
2021/03/12 02:42:48;;;;;;;5.50;1.35;;;19.80;66.50;;;;;;5078065;28;20395;-72
2021/03/12 02:45:59;;;;;;;9.88;2.75;;;19.70;66.70;;;;;;5080444;28;20344;-71
2021/03/12 02:48:34;;;;;;;3.72;1.65;;;19.70;66.30;;;;;;5087820;27;20492;-70
2021/03/12 02:51:07;;;;;;;140.85;125.45;;;19.60;66.10;;;;;;5083842;28;20491;-71
2021/03/12 02:54:13;;;;;;;12.38;11.05;;;19.70;66.30;;;;;;5084243;28;20128;-71
2021/03/12 02:57:20;;;;;;;4.60;1.42;;;19.60;66.00;;;;;;5079885;28;20013;-71
2021/03/12 03:00:08;;;;;;;4.43;1.25;;;19.60;66.10;;;;;;5079820;28;20028;-71
2021/03/12 03:02:35;;;;;;;4.43;1.50;;;19.60;65.70;;;;;;5082570;28;20562;-73
2021/03/12 03:05:41;;;;;;;2.45;1.30;;;19.60;65.60;;;;;;5082738;28;20711;-72
2021/03/12 03:08:47;;;;;;;3.33;1.48;;;19.60;65.50;;;;;;5086710;28;20024;-72
2021/03/12 03:11:15;;;;;;;3.08;1.23;;;19.60;65.70;;;;;;5081579;28;20103;-71
2021/03/12 03:14:21;;;;;;;2.53;1.10;;;19.60;65.00;;;;;;5076013;28;20020;-72
2021/03/12 03:16:49;;;;;;;4.43;1.80;;;19.60;64.90;;;;;;5082269;28;20017;-74
2021/03/12 03:19:18;;;;;;;2.80;1.05;;;19.50;65.50;;;;;;5080331;28;20036;-72
2021/03/12 03:21:46;;;;;;;2.67;0.95;;;19.50;65.80;;;;;;5078299;28;20012;-72
2021/03/12 03:24:52;;;;;;;1.92;1.00;;;19.50;64.70;;;;;;5089866;28;20024;-71
2021/03/12 03:27:47;;;;;;;7.00;1.40;;;19.50;63.90;;;;;;5087134;28;20024;-73
2021/03/12 03:30:15;;;;;;;1.67;0.50;;;19.60;61.90;;;;;;5120867;27;20039;-73
2021/03/12 03:33:21;;;;;;;2.25;0.98;;;19.60;61.30;;;;;;5083038;28;20077;-73
2021/03/12 03:36:27;;;;;;;4.88;0.98;;;19.60;60.10;;;;;;5080009;28;20391;-71
2021/03/12 03:38:54;;;;;;;8.73;5.57;;;19.60;60.20;;;;;;5080900;28;20515;-71
2021/03/12 03:42:00;;;;;;;42.53;36.65;;;19.60;59.90;;;;;;5082113;28;20373;-71
2021/03/12 03:44:28;;;;;;;9.93;7.65;;;19.60;59.00;;;;;;5084169;27;20024;-72
2021/03/12 03:47:34;;;;;;;2.80;1.50;;;19.70;57.60;;;;;;5084813;28;20437;-73
2021/03/12 03:50:10;;;;;;;2.22;1.13;;;19.70;56.20;;;;;;5081577;28;20040;-72
2021/03/12 03:53:16;;;;;;;1.30;0.60;;;19.70;55.90;;;;;;5075397;28;20066;-72
2021/03/12 03:56:22;;;;;;;1.90;1.23;;;19.80;55.20;;;;;;5076848;28;20032;-73
2021/03/12 03:58:54;;;;;;;2.30;1.05;;;19.80;55.40;;;;;;5082798;28;20040;-71
2021/03/12 04:02:00;;;;;;;5.50;1.45;;;19.80;57.10;;;;;;5083221;28;20391;-70
2021/03/12 04:05:06;;;;;;;10.13;6.50;;;19.80;58.50;;;;;;5085042;28;20070;-70
2021/03/12 08:56:31;;;;;;;2.42;0.80;;;23.30;54.60;;;;;;6228621;22;2151600;-76
2021/03/12 08:58:59;;;;;;;4.22;0.98;;;23.50;53.30;;;;;;6312191;22;20079;-77
2021/03/12 09:02:05;;;;;;;3.40;0.98;;;23.60;52.30;;;;;;6306743;22;20003;-76
2021/03/12 09:05:11;;;;;;;5.85;1.58;;;23.70;51.00;;;;;;6311644;22;20795;-77
2021/03/12 09:08:36;;;;;;;5.72;1.33;;;23.80;51.70;;;;;;6311137;22;19999;-76
2021/03/12 09:11:44;;;;;;;6.80;1.63;;;23.90;56.40;;;;;;6309703;22;20011;-77
2021/03/12 09:14:50;;;;;;;5.72;1.30;;;24.00;57.00;;;;;;6311101;22;20449;-77
2021/03/12 09:17:56;;;;;;;5.93;1.27;;;24.10;57.00;;;;;;6311749;22;20018;-77
2021/03/12 09:20:23;;;;;;;5.35;1.65;;;24.10;56.30;;;;;;6311924;22;20007;-76
2021/03/12 09:23:33;;;;;;;7.47;1.48;;;24.10;56.10;;;;;;6310893;22;19991;-75
2021/03/12 09:26:39;;;;;;;14.18;12.68;;;24.20;55.10;;;;;;6311932;22;20074;-75
2021/03/12 09:29:45;;;;;;;8.43;1.23;;;24.30;55.60;;;;;;6311482;22;20003;-75
2021/03/12 09:32:56;;;;;;;5.75;0.98;;;24.30;55.40;;;;;;6310470;22;20033;-74
2021/03/12 09:36:02;;;;;;;3.83;1.52;;;24.40;54.60;;;;;;6311501;22;20011;-74
2021/03/12 09:38:38;;;;;;;7.03;1.42;;;24.40;54.10;;;;;;6311542;22;20011;-75
2021/03/12 09:41:23;;;;;;;9.15;5.18;;;24.40;54.20;;;;;;6310499;22;20441;-76
2021/03/12 09:44:17;;;;;;;9.07;1.67;;;24.40;53.90;;;;;;6312171;22;20083;-75
2021/03/12 09:46:49;;;;;;;9.43;2.17;;;24.50;53.50;;;;;;6311708;22;20003;-75
2021/03/12 09:49:23;;;;;;;2.42;1.45;;;24.60;53.80;;;;;;6304172;22;19999;-75
2021/03/12 09:52:01;;;;;;;5.88;1.20;;;24.70;54.00;;;;;;6304773;22;20007;-76
2021/03/12 09:54:31;;;;;;;6.22;1.17;;;24.80;53.30;;;;;;6303406;22;20041;-74
2021/03/12 09:56:58;;;;;;;6.97;1.50;;;24.90;53.60;;;;;;6301138;22;20030;-78
2021/03/12 09:59:30;;;;;;;4.90;1.02;;;24.90;54.10;;;;;;6304340;22;19995;-78
2021/03/12 10:02:08;;;;;;;3.53;1.27;;;25.00;54.80;;;;;;6303513;22;20082;-76
2021/03/12 10:04:39;;;;;;;1.83;0.70;;;25.00;54.40;;;;;;6304730;22;20032;-77
2021/03/12 10:07:10;;;;;;;2.47;1.13;;;25.00;54.70;;;;;;6302966;22;20003;-76
2021/03/12 10:09:40;;;;;;;5.10;1.73;;;24.90;53.90;;;;;;6304647;22;20005;-77
2021/03/12 10:12:17;;;;;;;3.15;1.00;;;24.80;54.20;;;;;;6304111;22;20491;-76
2021/03/12 10:14:47;;;;;;;4.43;0.85;;;24.80;54.80;;;;;;6303620;22;20072;-77
2021/03/12 10:17:26;;;;;;;3.58;1.00;;;24.80;54.60;;;;;;6300518;22;20139;-76
2021/03/12 10:20:15;;;;;;;7.43;1.85;;;24.80;54.70;;;;;;6299332;22;20000;-75
2021/03/12 10:22:43;;;;;;;4.88;1.40;;;24.80;54.20;;;;;;6304193;22;20752;-77
2021/03/12 10:25:13;;;;;;;4.78;1.25;;;24.70;53.60;;;;;;6303575;22;20454;-76
2021/03/12 10:27:51;;;;;;;3.47;1.02;;;24.80;52.50;;;;;;6302796;22;20422;-76
2021/03/12 10:30:22;;;;;;;45.53;39.67;;;24.80;53.90;;;;;;6304027;22;20041;-77
2021/03/12 10:33:08;;;;;;;7.00;2.53;;;24.90;54.60;;;;;;6299422;22;19995;-74
2021/03/12 10:35:35;;;;;;;3.63;1.30;;;24.90;53.20;;;;;;6303030;22;20466;-76
2021/03/12 10:38:20;;;;;;;3.50;1.50;;;25.00;53.40;;;;;;6301889;22;20102;-77
2021/03/12 10:40:50;;;;;;;4.57;1.52;;;25.20;53.60;;;;;;6301159;22;19995;-77
2021/03/12 10:43:28;;;;;;;5.32;1.10;;;25.20;53.10;;;;;;6299776;22;20426;-74
2021/03/12 10:46:09;;;;;;;5.47;1.83;;;25.30;53.20;;;;;;6303026;22;20006;-77
2021/03/12 10:48:43;;;;;;;3.92;1.40;;;25.40;52.40;;;;;;6304514;22;19999;-76
2021/03/12 10:51:11;;;;;;;5.68;1.00;;;25.50;52.50;;;;;;6304016;22;20003;-77
2021/03/12 10:53:56;;;;;;;4.00;1.55;;;25.50;52.20;;;;;;6303328;22;20006;-76
2021/03/12 10:56:25;;;;;;;3.53;0.88;;;25.60;54.10;;;;;;6303664;22;20434;-77
2021/03/12 10:58:53;;;;;;;3.45;1.10;;;25.60;54.00;;;;;;6303011;22;20430;-77
2021/03/12 11:01:29;;;;;;;4.53;0.85;;;25.70;52.80;;;;;;6303633;22;20027;-77
2021/03/12 11:04:00;;;;;;;6.47;1.27;;;25.60;52.50;;;;;;6304635;22;20053;-76
2021/03/12 11:06:29;;;;;;;2.22;1.30;;;25.50;52.10;;;;;;6303059;22;20071;-77
2021/03/12 11:08:55;;;;;;;4.20;1.35;;;25.40;51.80;;;;;;6301987;22;20112;-77
2021/03/12 11:11:23;;;;;;;5.75;1.42;;;25.20;51.90;;;;;;6302603;22;20003;-77
2021/03/12 11:13:51;;;;;;;4.00;1.30;;;25.10;53.60;;;;;;6302934;22;20311;-76
2021/03/12 11:16:18;;;;;;;4.13;0.85;;;25.00;54.40;;;;;;6302103;22;20015;-76
2021/03/12 11:18:45;;;;;;;2.92;1.08;;;25.10;53.40;;;;;;6303918;22;20022;-76
2021/03/12 11:21:12;;;;;;;5.05;1.13;;;25.10;53.30;;;;;;6303452;22;20422;-77
2021/03/12 11:23:42;;;;;;;3.70;0.80;;;25.20;51.90;;;;;;6303487;22;20425;-76
2021/03/12 11:26:08;;;;;;;5.18;1.08;;;25.30;50.70;;;;;;6303963;22;20003;-76
2021/03/12 11:28:36;;;;;;;3.60;1.02;;;25.30;50.30;;;;;;6302924;22;19995;-77
2021/03/12 11:31:03;;;;;;;2.50;0.95;;;25.40;49.80;;;;;;6304177;22;20074;-77
2021/03/12 11:33:30;;;;;;;3.50;0.98;;;25.40;49.40;;;;;;6302703;22;20401;-76
2021/03/12 11:36:00;;;;;;;2.38;0.60;;;25.30;47.40;;;;;;6301859;22;20033;-76
2021/03/12 11:38:28;;;;;;;2.50;0.93;;;25.30;48.20;;;;;;6303586;22;20085;-76
2021/03/12 11:40:55;;;;;;;2.05;0.82;;;25.20;47.30;;;;;;6303386;22;20104;-76
2021/03/12 11:43:21;;;;;;;2.70;0.95;;;25.20;47.50;;;;;;6303709;22;19999;-75
2021/03/12 11:45:48;;;;;;;2.00;0.80;;;25.30;46.50;;;;;;6302342;22;20038;-76
2021/03/12 11:48:14;;;;;;;2.60;0.90;;;25.20;47.60;;;;;;6303938;22;19999;-76
2021/03/12 11:50:41;;;;;;;3.38;1.00;;;25.20;47.90;;;;;;6302405;22;19999;-77
2021/03/12 11:53:07;;;;;;;3.65;1.42;;;25.20;49.40;;;;;;6303720;22;19999;-76
2021/03/12 11:55:34;;;;;;;4.78;1.23;;;25.20;51.80;;;;;;6302872;22;20011;-76
2021/03/12 11:58:01;;;;;;;3.70;0.93;;;25.30;52.00;;;;;;6302846;22;20019;-76
2021/03/12 12:00:30;;;;;;;3.22;0.80;;;25.40;52.00;;;;;;6304358;22;20327;-76
2021/03/12 12:02:57;;;;;;;3.53;0.80;;;25.50;50.80;;;;;;6302504;22;20343;-77
2021/03/12 14:27:20;;;;;;;2.65;1.15;;;26.10;50.30;;;;;;5103685;27;20424;-79
2021/03/12 14:29:46;;;;;;;1.83;0.73;;;26.20;51.70;;;;;;5076080;28;20033;-76
2021/03/12 14:32:14;;;;;;;2.83;0.95;;;26.20;51.80;;;;;;5080661;28;20107;-74
2021/03/12 14:34:42;;;;;;;5.53;1.52;;;26.10;51.50;;;;;;5085042;28;20024;-73
2021/03/12 14:37:08;;;;;;;8.02;2.35;;;26.00;52.50;;;;;;5084052;28;20024;-73
2021/03/12 14:39:35;;;;;;;30.65;6.82;;;26.00;53.70;;;;;;5085373;28;20024;-73
2021/03/12 14:42:02;;;;;;;6.45;1.25;;;25.90;54.20;;;;;;5087656;28;20024;-75
2021/03/12 14:44:29;;;;;;;7.47;2.42;;;25.80;54.20;;;;;;5085226;28;20020;-74
2021/03/12 14:46:57;;;;;;;31.63;15.27;;;25.60;55.70;;;;;;5082823;28;20017;-76
2021/03/12 14:49:23;;;;;;;100.70;42.03;;;25.50;57.00;;;;;;5080260;28;20386;-76
2021/03/12 14:51:50;;;;;;;123.05;60.65;;;25.40;57.30;;;;;;5081267;28;20119;-76
2021/03/12 14:54:17;;;;;;;32.25;17.00;;;25.30;57.80;;;;;;5083120;28;20035;-74
2021/03/12 14:56:45;;;;;;;14.02;6.13;;;25.10;57.40;;;;;;5081978;28;20482;-76
2021/03/12 14:59:11;;;;;;;18.27;7.18;;;25.10;57.70;;;;;;5078929;28;20029;-76
2021/03/12 15:01:38;;;;;;;14.07;5.25;;;24.90;57.70;;;;;;5081073;28;20383;-76
2021/03/12 15:04:45;;;;;;;12.15;3.95;;;24.80;58.00;;;;;;5082457;28;20491;-75
2021/03/12 15:07:51;;;;;;;5.53;1.50;;;24.80;58.30;;;;;;5078497;28;20035;-76
2021/03/12 15:10:18;;;;;;;;;;;24.70;58.60;;;;;;5084171;28;20501;-76
2021/03/12 15:12:45;;;;;;;3.65;1.30;;;24.70;59.30;;;;;;5083485;28;19912;-78
2021/03/12 15:15:12;;;;;;;4.10;1.35;;;24.60;59.20;;;;;;5080655;28;20367;-76
2021/03/12 15:17:40;;;;;;;7.85;1.80;;;24.60;60.20;;;;;;5080206;28;20058;-76
2021/03/12 15:20:46;;;;;;;4.43;1.30;;;24.60;59.90;;;;;;5079889;28;20021;-79
2021/03/12 15:23:31;;;;;;;;;;;24.70;60.00;;;;;;5088406;28;20036;-76
2021/03/12 15:26:38;;;;;;;6.78;1.73;;;24.60;59.80;;;;;;5075602;28;20030;-73
2021/03/12 15:29:07;;;;;;;;;;;24.70;59.70;;;;;;5071277;28;20033;-74
2021/03/12 15:31:37;;;;;;;9.93;8.27;;;24.70;59.90;;;;;;5067240;28;19912;-74
2021/03/12 15:34:04;;;;;;;11.57;6.65;;;24.80;60.70;;;;;;5065946;28;20046;-77
2021/03/12 15:36:30;;;;;;;10.60;3.92;;;24.80;60.10;;;;;;5067766;28;20041;-77
2021/03/12 15:38:57;;;;;;;5.40;1.20;;;24.80;59.90;;;;;;5067122;28;20631;-76
2021/03/12 15:41:24;;;;;;;4.40;1.50;;;24.80;59.30;;;;;;5070848;28;20033;-78
2021/03/12 15:43:50;;;;;;;9.48;1.85;;;24.70;59.10;;;;;;5069789;28;20074;-76
2021/03/12 15:46:17;;;;;;;6.32;1.52;;;24.70;59.00;;;;;;5065305;28;20063;-76
2021/03/12 15:48:43;;;;;;;4.40;1.50;;;24.70;59.00;;;;;;5070110;28;20431;-76
2021/03/12 15:51:10;;;;;;;7.22;0.95;;;24.70;59.10;;;;;;5066933;28;20024;-75
2021/03/12 15:53:38;;;;;;;4.95;1.23;;;24.70;59.10;;;;;;5068924;28;20429;-76
2021/03/12 15:56:05;;;;;;;5.00;1.30;;;24.70;58.80;;;;;;5071212;28;20032;-77
2021/03/12 15:58:32;;;;;;;3.45;1.33;;;24.60;59.10;;;;;;5068336;28;20016;-75
2021/03/12 16:00:58;;;;;;;2.92;1.08;;;24.60;58.60;;;;;;5069529;28;20466;-76
2021/03/12 16:04:16;;;;;;;4.50;1.25;;;24.60;58.80;;;;;;5065043;28;20104;-76
2021/03/12 16:07:22;;;;;;;4.45;1.42;;;24.60;59.30;;;;;;5068127;28;20028;-76
2021/03/12 16:10:28;;;;;;;10.07;2.13;;;24.50;59.10;;;;;;5066018;28;20078;-75
2021/03/12 16:12:54;;;;;;;;;;;24.50;59.00;;;;;;5070307;28;20457;-76
2021/03/12 16:15:21;;;;;;;24.73;16.83;;;24.50;59.00;;;;;;5074281;28;20021;-74
2021/03/12 16:17:47;;;;;;;11.13;7.95;;;24.60;58.90;;;;;;5072560;28;20054;-76
2021/03/12 16:20:14;;;;;;;11.65;4.90;;;24.60;58.60;;;;;;5070214;28;20021;-72
2021/03/12 16:22:41;;;;;;;5.18;2.33;;;24.70;58.50;;;;;;5070440;28;20578;-74
2021/03/12 16:25:09;;;;;;;9.05;4.75;;;24.70;58.30;;;;;;5063024;28;20431;-74
2021/03/12 16:27:36;;;;;;;19.63;15.80;;;24.80;57.60;;;;;;5065199;28;20029;-75
2021/03/12 16:30:09;;;;;;;11.13;9.23;;;24.80;56.30;;;;;;5068892;28;20077;-75
2021/03/12 16:32:36;;;;;;;26.25;23.48;;;24.80;55.50;;;;;;5069703;28;20537;-75
2021/03/12 16:35:02;;;;;;;12.75;11.45;;;24.90;54.80;;;;;;5065761;28;20059;-75
2021/03/12 16:37:29;;;;;;;6.28;4.00;;;24.90;54.10;;;;;;5067097;28;20099;-74
2021/03/12 16:39:59;;;;;;;10.43;4.15;;;24.90;54.10;;;;;;5067118;28;20017;-75
2021/03/12 16:42:26;;;;;;;10.50;4.18;;;24.90;53.70;;;;;;5065894;28;20020;-75
2021/03/12 16:44:53;;;;;;;7.63;4.75;;;25.00;53.40;;;;;;5065207;28;20110;-75
2021/03/12 16:47:19;;;;;;;6.47;3.90;;;24.90;54.50;;;;;;5064372;28;20025;-75
2021/03/12 16:49:46;;;;;;;7.22;3.63;;;24.90;56.30;;;;;;5066111;28;20025;-75
2021/03/12 16:52:14;;;;;;;8.27;4.07;;;24.90;57.50;;;;;;5064090;28;20103;-75
2021/03/12 16:54:40;;;;;;;12.38;4.28;;;24.90;58.00;;;;;;5068424;28;20111;-75
2021/03/12 16:57:07;;;;;;;10.10;4.70;;;24.80;58.60;;;;;;5065225;28;20056;-77
2021/03/12 16:59:34;;;;;;;7.65;5.90;;;24.80;59.10;;;;;;5067132;28;20025;-76
2021/03/12 17:02:41;;;;;;;9.45;5.00;;;24.80;59.40;;;;;;5061432;28;20051;-77
2021/03/12 17:05:48;;;;;;;8.60;5.18;;;24.70;59.60;;;;;;5063195;28;20039;-75
2021/03/12 17:08:54;;;;;;;10.02;6.07;;;24.70;59.80;;;;;;5062153;28;20082;-75
2021/03/12 17:11:42;;;;;;;;;;;24.70;60.20;;;;;;5062202;28;20107;-75
2021/03/12 17:14:48;;;;;;;8.18;4.78;;;24.70;60.40;;;;;;5059247;28;19913;-77
2021/03/12 17:17:34;;;;;;;;;;;24.60;60.60;;;;;;5060533;28;20024;-76
2021/03/12 17:20:40;;;;;;;14.45;6.88;;;24.60;60.90;;;;;;5059238;28;19915;-74
2021/03/12 17:23:06;;;;;;;;;;;24.60;61.40;;;;;;5061513;28;20069;-75
2021/03/12 17:25:33;;;;;;;13.48;4.88;;;24.50;61.70;;;;;;5056860;28;20448;-74
2021/03/12 17:28:00;;;;;;;9.73;5.35;;;24.50;61.70;;;;;;5056419;28;20025;-74
2021/03/12 17:30:28;;;;;;;14.98;5.63;;;24.50;62.00;;;;;;5054073;28;20532;-72
2021/03/12 17:32:56;;;;;;;10.00;5.85;;;24.50;62.20;;;;;;5055166;28;20028;-72
2021/03/12 17:35:24;;;;;;;6.80;4.22;;;24.40;62.00;;;;;;5055122;28;21222;-74
2021/03/12 17:37:51;;;;;;;9.43;6.50;;;24.40;61.90;;;;;;5060336;28;20627;-74
2021/03/12 17:40:18;;;;;;;12.57;7.50;;;24.40;61.30;;;;;;5060520;28;20372;-73
2021/03/12 17:42:46;;;;;;;13.07;7.13;;;24.40;61.60;;;;;;5062432;28;20021;-74
2021/03/12 17:45:15;;;;;;;13.88;7.47;;;24.40;61.40;;;;;;5058946;28;20020;-73
2021/03/12 17:47:41;;;;;;;10.07;6.70;;;24.40;61.40;;;;;;5059801;28;20020;-74
2021/03/12 17:50:09;;;;;;;11.73;6.60;;;24.30;61.60;;;;;;5062821;28;20104;-74
2021/03/12 17:52:35;;;;;;;8.57;6.43;;;24.30;61.60;;;;;;5062185;28;20115;-73
2021/03/12 17:55:07;;;;;;;10.05;6.68;;;24.30;61.80;;;;;;5060624;28;20119;-75
2021/03/12 17:57:33;;;;;;;11.55;6.90;;;24.30;61.80;;;;;;5060204;28;20028;-74
2021/03/12 18:00:02;;;;;;;9.30;6.45;;;24.30;61.90;;;;;;5060769;28;20028;-76
2021/03/12 18:02:28;;;;;;;9.43;5.45;;;24.30;62.50;;;;;;5060772;28;20035;-75
2021/03/12 18:04:55;;;;;;;9.93;4.85;;;24.30;62.60;;;;;;5059593;28;20024;-75
2021/03/12 18:07:22;;;;;;;6.53;3.97;;;24.20;62.70;;;;;;5065552;28;20021;-75
2021/03/12 18:09:49;;;;;;;9.52;3.47;;;24.20;62.70;;;;;;5064693;28;20031;-75
2021/03/12 18:12:16;;;;;;;10.07;3.80;;;24.20;62.80;;;;;;5063626;28;20340;-73
2021/03/12 18:14:42;;;;;;;8.00;4.15;;;24.20;63.00;;;;;;5063190;28;20040;-75
2021/03/12 18:17:09;;;;;;;8.93;3.83;;;24.20;63.50;;;;;;5064415;28;20875;-74
2021/03/12 18:19:35;;;;;;;10.75;5.72;;;24.10;63.70;;;;;;5065873;28;20024;-74
2021/03/12 18:22:02;;;;;;;12.63;8.13;;;24.10;63.80;;;;;;5058788;28;20099;-76
2021/03/12 18:24:29;;;;;;;10.27;7.85;;;24.10;64.00;;;;;;5060646;28;20028;-78
2021/03/12 18:26:56;;;;;;;11.40;6.97;;;24.10;64.10;;;;;;5058897;28;20020;-74
2021/03/12 18:29:22;;;;;;;9.15;5.50;;;24.10;64.30;;;;;;5063928;28;20104;-77
2021/03/12 18:31:50;;;;;;;9.50;5.45;;;24.00;64.40;;;;;;5064072;28;20013;-74
2021/03/12 18:34:16;;;;;;;9.65;5.28;;;24.00;64.70;;;;;;5060766;28;20033;-76
2021/03/12 18:36:44;;;;;;;11.93;5.13;;;24.00;65.00;;;;;;5062651;28;20020;-83
2021/03/12 18:39:11;;;;;;;9.32;4.88;;;24.00;65.20;;;;;;5055584;28;20078;-79
2021/03/12 18:41:37;;;;;;;8.00;4.57;;;24.00;65.20;;;;;;5064478;28;20014;-77
2021/03/12 18:44:43;;;;;;;7.40;4.50;;;23.90;65.40;;;;;;5062345;28;20443;-81
2021/03/12 18:47:50;;;;;;;8.60;3.88;;;23.90;65.30;;;;;;5065340;28;20024;-76
2021/03/12 18:50:56;;;;;;;5.25;4.30;;;23.90;65.50;;;;;;5061540;28;20025;-73
2021/03/12 18:54:02;;;;;;;10.93;5.13;;;23.90;65.70;;;;;;5065106;28;20032;-79
2021/03/12 18:57:09;;;;;;;6.35;4.10;;;23.80;65.90;;;;;;5055346;28;20116;-73
2021/03/12 19:00:16;;;;;;;10.10;4.63;;;23.80;66.10;;;;;;5064343;28;20451;-76
2021/03/12 19:03:22;;;;;;;11.23;5.57;;;23.80;66.30;;;;;;5065352;28;20021;-77
2021/03/12 19:06:08;;;;;;;;;;;23.80;66.30;;;;;;5063057;28;20376;-78
2021/03/12 19:08:35;;;;;;;8.73;5.57;;;23.70;66.30;;;;;;5066374;28;19996;-73
2021/03/12 19:11:41;;;;;;;8.63;5.60;;;23.70;66.40;;;;;;5068002;28;20024;-76
2021/03/12 19:14:48;;;;;;;11.45;5.82;;;23.70;66.60;;;;;;5061698;28;20016;-75
2021/03/12 19:17:18;;;;;;;8.45;5.93;;;23.60;66.60;;;;;;5061028;28;20023;-73
2021/03/12 19:19:46;;;;;;;10.63;5.72;;;23.70;66.70;;;;;;5063489;28;20017;-74
2021/03/12 19:22:15;;;;;;;11.07;6.22;;;23.60;66.70;;;;;;5060799;28;20021;-75
2021/03/12 19:24:41;;;;;;;12.48;7.47;;;23.60;66.70;;;;;;5063585;28;20039;-79
2021/03/12 19:27:09;;;;;;;9.93;6.97;;;23.60;66.90;;;;;;5064049;28;20047;-76
2021/03/12 19:29:40;;;;;;;10.40;6.13;;;23.60;67.10;;;;;;5067589;28;20367;-74
2021/03/12 19:32:08;;;;;;;11.25;6.25;;;23.60;67.20;;;;;;5065478;28;20052;-73
2021/03/12 19:34:36;;;;;;;8.65;5.60;;;23.60;67.30;;;;;;5060187;28;20064;-75
2021/03/12 19:37:03;;;;;;;8.50;5.55;;;23.60;67.40;;;;;;5063914;28;20021;-73
2021/03/12 19:39:30;;;;;;;10.88;5.25;;;23.50;67.40;;;;;;5061517;28;20029;-76
2021/03/12 19:41:57;;;;;;;9.90;4.95;;;23.50;67.40;;;;;;5065532;28;20020;-74
2021/03/12 19:44:24;;;;;;;8.60;4.78;;;23.50;67.40;;;;;;5060418;28;20045;-74
2021/03/12 19:46:51;;;;;;;10.55;6.80;;;23.50;67.50;;;;;;5062977;28;20024;-73
2021/03/12 19:49:17;;;;;;;16.17;8.50;;;23.50;67.40;;;;;;5060039;28;20115;-74
2021/03/12 19:51:44;;;;;;;11.27;7.32;;;23.50;67.30;;;;;;5062077;28;20020;-74
2021/03/12 19:54:11;;;;;;;8.18;6.38;;;23.50;67.30;;;;;;5063361;28;20024;-75
2021/03/12 19:56:37;;;;;;;7.25;4.93;;;23.50;67.30;;;;;;5063278;28;20032;-75
2021/03/12 19:59:04;;;;;;;6.82;4.55;;;23.50;67.40;;;;;;5064960;28;20029;-75
2021/03/12 20:01:31;;;;;;;7.70;4.40;;;23.40;67.30;;;;;;5059935;28;20025;-73
2021/03/12 20:03:58;;;;;;;7.10;3.55;;;23.40;67.30;;;;;;5066239;28;20032;-73
2021/03/12 20:06:24;;;;;;;9.07;3.50;;;23.40;67.40;;;;;;5058733;28;20048;-74
2021/03/12 20:08:52;;;;;;;7.47;3.60;;;23.40;67.40;;;;;;5065125;28;20045;-73
2021/03/12 20:11:18;;;;;;;9.40;4.75;;;23.40;67.40;;;;;;5065576;28;20039;-74
2021/03/12 20:13:45;;;;;;;9.32;7.22;;;23.40;67.50;;;;;;5061825;28;20036;-74
2021/03/12 20:16:13;;;;;;;8.60;4.95;;;23.30;67.50;;;;;;5068984;28;20036;-76
2021/03/12 20:18:41;;;;;;;11.15;5.10;;;23.30;67.60;;;;;;5059757;28;20513;-75
2021/03/12 20:21:08;;;;;;;9.90;4.70;;;23.30;67.70;;;;;;5062599;28;20021;-76
2021/03/12 20:23:36;;;;;;;12.50;5.05;;;23.30;67.70;;;;;;5062989;28;20533;-75
2021/03/12 20:26:03;;;;;;;11.23;5.80;;;23.30;67.80;;;;;;5063405;28;20064;-74
2021/03/12 20:28:29;;;;;;;11.75;5.65;;;23.30;67.90;;;;;;5063149;28;20013;-75
2021/03/12 20:30:56;;;;;;;9.52;4.97;;;23.30;68.00;;;;;;5063056;28;20020;-73
2021/03/12 20:34:02;;;;;;;8.07;5.40;;;23.20;68.10;;;;;;5056982;28;20031;-76
2021/03/12 20:36:29;;;;;;;13.02;4.63;;;23.30;68.10;;;;;;5061650;28;20037;-75
2021/03/12 20:38:55;;;;;;;5.57;4.05;;;23.20;68.20;;;;;;5059522;28;20425;-73
2021/03/12 20:41:22;;;;;;;9.95;4.18;;;23.20;68.30;;;;;;5057624;28;20052;-73
2021/03/12 20:43:48;;;;;;;8.30;3.85;;;23.20;68.50;;;;;;5063730;28;20020;-83
2021/03/12 20:46:16;;;;;;;8.43;3.97;;;23.20;68.60;;;;;;5057957;28;20467;-77
2021/03/12 20:48:42;;;;;;;12.73;5.78;;;23.20;68.70;;;;;;5062162;28;20024;-75
2021/03/12 20:51:09;;;;;;;9.25;3.88;;;23.20;68.60;;;;;;5061866;28;20033;-75
2021/03/12 20:53:35;;;;;;;5.10;3.55;;;23.10;68.70;;;;;;5061645;28;20857;-74
2021/03/12 20:56:02;;;;;;;7.00;3.83;;;23.10;68.70;;;;;;5063240;28;20134;-73
2021/03/12 20:58:30;;;;;;;6.90;4.38;;;23.10;68.70;;;;;;5061410;28;20099;-73